sensor_id;sensor_type;location;lat;lon;timestamp;temperature;humidity
59855;DHT22;45732;52.850;6.896;2023-12-20T00:01:21;6.30;99.90
59855;DHT22;45732;52.850;6.896;2023-12-20T00:03:47;6.30;99.90
59855;DHT22;45732;52.850;6.896;2023-12-20T00:06:13;6.30;99.90
59855;DHT22;45732;52.850;6.896;2023-12-20T00:08:38;6.30;99.90
59855;DHT22;45732;52.850;6.896;2023-12-20T00:11:04;6.30;99.90
59855;DHT22;45732;52.850;6.896;2023-12-20T00:13:30;6.30;99.90
59855;DHT22;45732;52.850;6.896;2023-12-20T00:15:55;6.30;99.90
59855;DHT22;45732;52.850;6.896;2023-12-20T00:18:21;6.40;99.90
59855;DHT22;45732;52.850;6.896;2023-12-20T00:20:47;6.40;99.90
59855;DHT22;45732;52.850;6.896;2023-12-20T00:23:12;6.40;99.90
59855;DHT22;45732;52.850;6.896;2023-12-20T00:25:38;6.40;99.90
59855;DHT22;45732;52.850;6.896;2023-12-20T00:28:04;6.40;99.90
59855;DHT22;45732;52.850;6.896;2023-12-20T00:30:29;6.40;99.90
59855;DHT22;45732;52.850;6.896;2023-12-20T00:32:56;6.30;99.90
59855;DHT22;45732;52.850;6.896;2023-12-20T00:35:21;6.30;99.90
59855;DHT22;45732;52.850;6.896;2023-12-20T00:37:47;6.20;99.90
59855;DHT22;45732;52.850;6.896;2023-12-20T00:40:13;6.30;99.90
59855;DHT22;45732;52.850;6.896;2023-12-20T00:42:38;6.20;99.90
59855;DHT22;45732;52.850;6.896;2023-12-20T00:45:05;6.30;99.90
59855;DHT22;45732;52.850;6.896;2023-12-20T00:47:31;6.30;99.90
59855;DHT22;45732;52.850;6.896;2023-12-20T00:49:57;6.20;99.90
59855;DHT22;45732;52.850;6.896;2023-12-20T00:52:23;6.30;99.90
59855;DHT22;45732;52.850;6.896;2023-12-20T00:54:49;6.20;99.90
59855;DHT22;45732;52.850;6.896;2023-12-20T00:57:15;6.20;99.90
59855;DHT22;45732;52.850;6.896;2023-12-20T00:59:40;6.20;99.90
59855;DHT22;45732;52.850;6.896;2023-12-20T01:02:06;6.20;99.90
59855;DHT22;45732;52.850;6.896;2023-12-20T01:04:32;6.20;99.90
59855;DHT22;45732;52.850;6.896;2023-12-20T01:06:58;6.10;99.90
59855;DHT22;45732;52.850;6.896;2023-12-20T01:09:23;6.10;99.90
59855;DHT22;45732;52.850;6.896;2023-12-20T01:11:52;6.10;99.90
59855;DHT22;45732;52.850;6.896;2023-12-20T01:14:18;6.20;99.90
59855;DHT22;45732;52.850;6.896;2023-12-20T01:16:44;6.20;99.90
59855;DHT22;45732;52.850;6.896;2023-12-20T01:19:10;6.20;99.90
59855;DHT22;45732;52.850;6.896;2023-12-20T01:21:35;6.20;99.90
59855;DHT22;45732;52.850;6.896;2023-12-20T01:24:01;6.20;99.90
59855;DHT22;45732;52.850;6.896;2023-12-20T01:26:27;6.20;99.90
59855;DHT22;45732;52.850;6.896;2023-12-20T01:28:53;6.20;99.90
59855;DHT22;45732;52.850;6.896;2023-12-20T01:31:19;6.20;99.90
59855;DHT22;45732;52.850;6.896;2023-12-20T01:33:44;6.20;99.90
59855;DHT22;45732;52.850;6.896;2023-12-20T01:36:10;6.20;99.90
59855;DHT22;45732;52.850;6.896;2023-12-20T01:38:37;6.20;99.90
59855;DHT22;45732;52.850;6.896;2023-12-20T01:41:02;6.20;99.90
59855;DHT22;45732;52.850;6.896;2023-12-20T01:43:29;6.20;99.90
59855;DHT22;45732;52.850;6.896;2023-12-20T01:45:56;6.20;99.90
59855;DHT22;45732;52.850;6.896;2023-12-20T01:48:24;6.20;99.90
59855;DHT22;45732;52.850;6.896;2023-12-20T01:50:50;6.20;99.90
59855;DHT22;45732;52.850;6.896;2023-12-20T01:53:17;6.10;99.90
59855;DHT22;45732;52.850;6.896;2023-12-20T01:55:44;6.20;99.90
59855;DHT22;45732;52.850;6.896;2023-12-20T01:58:11;6.20;99.90
59855;DHT22;45732;52.850;6.896;2023-12-20T02:00:38;6.20;99.90
59855;DHT22;45732;52.850;6.896;2023-12-20T02:03:04;6.10;99.90
59855;DHT22;45732;52.850;6.896;2023-12-20T02:05:31;6.20;99.90
59855;DHT22;45732;52.850;6.896;2023-12-20T02:07:57;6.20;99.90
59855;DHT22;45732;52.850;6.896;2023-12-20T02:10:23;6.20;99.90
59855;DHT22;45732;52.850;6.896;2023-12-20T02:12:49;6.20;99.90
59855;DHT22;45732;52.850;6.896;2023-12-20T02:15:15;6.20;99.90
59855;DHT22;45732;52.850;6.896;2023-12-20T02:17:41;6.30;99.90
59855;DHT22;45732;52.850;6.896;2023-12-20T02:20:07;6.30;99.90
59855;DHT22;45732;52.850;6.896;2023-12-20T02:22:32;6.30;99.90
59855;DHT22;45732;52.850;6.896;2023-12-20T02:24:58;6.30;99.90
59855;DHT22;45732;52.850;6.896;2023-12-20T02:27:24;6.30;99.90
59855;DHT22;45732;52.850;6.896;2023-12-20T02:29:50;6.40;99.90
59855;DHT22;45732;52.850;6.896;2023-12-20T02:32:17;6.40;99.90
59855;DHT22;45732;52.850;6.896;2023-12-20T02:34:43;6.40;99.90
59855;DHT22;45732;52.850;6.896;2023-12-20T02:37:09;6.40;99.90
59855;DHT22;45732;52.850;6.896;2023-12-20T02:39:34;6.40;99.90
59855;DHT22;45732;52.850;6.896;2023-12-20T02:42:00;6.40;99.90
59855;DHT22;45732;52.850;6.896;2023-12-20T02:44:26;6.40;99.90
59855;DHT22;45732;52.850;6.896;2023-12-20T02:46:51;6.40;99.90
59855;DHT22;45732;52.850;6.896;2023-12-20T02:49:17;6.40;99.90
59855;DHT22;45732;52.850;6.896;2023-12-20T02:51:43;6.40;99.90
59855;DHT22;45732;52.850;6.896;2023-12-20T02:54:09;6.40;99.90
59855;DHT22;45732;52.850;6.896;2023-12-20T02:56:35;6.40;99.90
59855;DHT22;45732;52.850;6.896;2023-12-20T02:59:00;6.40;99.90
59855;DHT22;45732;52.850;6.896;2023-12-20T03:01:28;6.40;99.90
59855;DHT22;45732;52.850;6.896;2023-12-20T03:03:54;6.40;99.90
59855;DHT22;45732;52.850;6.896;2023-12-20T03:06:20;6.40;99.90
59855;DHT22;45732;52.850;6.896;2023-12-20T03:08:46;6.40;99.90
59855;DHT22;45732;52.850;6.896;2023-12-20T03:11:12;6.40;99.90
59855;DHT22;45732;52.850;6.896;2023-12-20T03:13:37;6.40;99.90
59855;DHT22;45732;52.850;6.896;2023-12-20T03:16:13;6.40;99.90
59855;DHT22;45732;52.850;6.896;2023-12-20T03:18:39;6.40;99.90
59855;DHT22;45732;52.850;6.896;2023-12-20T03:21:05;6.40;99.90
59855;DHT22;45732;52.850;6.896;2023-12-20T03:23:30;6.40;99.90
59855;DHT22;45732;52.850;6.896;2023-12-20T03:25:58;6.40;99.90
59855;DHT22;45732;52.850;6.896;2023-12-20T03:28:24;6.40;99.90
59855;DHT22;45732;52.850;6.896;2023-12-20T03:30:50;6.40;99.90
59855;DHT22;45732;52.850;6.896;2023-12-20T03:33:16;6.40;99.90
59855;DHT22;45732;52.850;6.896;2023-12-20T03:35:41;6.40;99.90
59855;DHT22;45732;52.850;6.896;2023-12-20T03:38:07;6.40;99.90
59855;DHT22;45732;52.850;6.896;2023-12-20T03:40:33;6.40;99.90
59855;DHT22;45732;52.850;6.896;2023-12-20T03:42:59;6.40;99.90
59855;DHT22;45732;52.850;6.896;2023-12-20T03:45:25;6.30;99.90
59855;DHT22;45732;52.850;6.896;2023-12-20T03:47:50;6.40;99.90
59855;DHT22;45732;52.850;6.896;2023-12-20T03:50:22;6.40;99.90
59855;DHT22;45732;52.850;6.896;2023-12-20T03:52:47;6.30;99.90
59855;DHT22;45732;52.850;6.896;2023-12-20T03:55:13;6.40;99.90
59855;DHT22;45732;52.850;6.896;2023-12-20T03:57:39;6.40;99.90
59855;DHT22;45732;52.850;6.896;2023-12-20T04:00:06;6.40;99.90
59855;DHT22;45732;52.850;6.896;2023-12-20T04:02:36;6.40;99.90
59855;DHT22;45732;52.850;6.896;2023-12-20T04:05:02;6.40;99.90
59855;DHT22;45732;52.850;6.896;2023-12-20T04:07:27;6.40;99.90
59855;DHT22;45732;52.850;6.896;2023-12-20T04:09:53;6.50;99.90
59855;DHT22;45732;52.850;6.896;2023-12-20T04:12:19;6.50;99.90
59855;DHT22;45732;52.850;6.896;2023-12-20T04:14:44;6.50;99.90
59855;DHT22;45732;52.850;6.896;2023-12-20T04:17:10;6.50;99.90
59855;DHT22;45732;52.850;6.896;2023-12-20T04:19:36;6.60;99.90
59855;DHT22;45732;52.850;6.896;2023-12-20T04:22:01;6.60;99.90
59855;DHT22;45732;52.850;6.896;2023-12-20T04:24:27;6.60;99.90
59855;DHT22;45732;52.850;6.896;2023-12-20T04:26:53;6.60;99.90
59855;DHT22;45732;52.850;6.896;2023-12-20T04:29:18;6.50;99.90
59855;DHT22;45732;52.850;6.896;2023-12-20T04:31:44;6.50;99.90
59855;DHT22;45732;52.850;6.896;2023-12-20T04:34:10;6.50;99.90
59855;DHT22;45732;52.850;6.896;2023-12-20T04:36:35;6.50;99.90
59855;DHT22;45732;52.850;6.896;2023-12-20T04:39:01;6.50;99.90
59855;DHT22;45732;52.850;6.896;2023-12-20T04:41:27;6.50;99.90
59855;DHT22;45732;52.850;6.896;2023-12-20T04:43:53;6.60;99.90
59855;DHT22;45732;52.850;6.896;2023-12-20T04:46:18;6.60;99.90
59855;DHT22;45732;52.850;6.896;2023-12-20T04:48:44;6.60;99.90
59855;DHT22;45732;52.850;6.896;2023-12-20T04:51:10;6.60;99.90
59855;DHT22;45732;52.850;6.896;2023-12-20T04:53:35;6.60;99.90
59855;DHT22;45732;52.850;6.896;2023-12-20T04:56:01;6.60;99.90
59855;DHT22;45732;52.850;6.896;2023-12-20T04:58:27;6.60;99.90
59855;DHT22;45732;52.850;6.896;2023-12-20T05:00:52;6.60;99.90
59855;DHT22;45732;52.850;6.896;2023-12-20T05:03:18;6.70;99.90
59855;DHT22;45732;52.850;6.896;2023-12-20T05:05:44;6.70;99.90
59855;DHT22;45732;52.850;6.896;2023-12-20T05:08:09;6.60;99.90
59855;DHT22;45732;52.850;6.896;2023-12-20T05:10:35;6.70;99.90
59855;DHT22;45732;52.850;6.896;2023-12-20T05:13:02;6.70;99.90
59855;DHT22;45732;52.850;6.896;2023-12-20T05:15:28;6.70;99.90
59855;DHT22;45732;52.850;6.896;2023-12-20T05:17:53;6.70;99.90
59855;DHT22;45732;52.850;6.896;2023-12-20T05:20:19;6.70;99.90
59855;DHT22;45732;52.850;6.896;2023-12-20T05:22:44;6.70;99.90
59855;DHT22;45732;52.850;6.896;2023-12-20T05:25:10;6.70;99.90
59855;DHT22;45732;52.850;6.896;2023-12-20T05:27:36;6.80;99.90
59855;DHT22;45732;52.850;6.896;2023-12-20T05:30:02;6.80;99.90
59855;DHT22;45732;52.850;6.896;2023-12-20T05:32:29;6.80;99.90
59855;DHT22;45732;52.850;6.896;2023-12-20T05:34:55;6.80;99.90
59855;DHT22;45732;52.850;6.896;2023-12-20T05:37:21;6.90;99.90
59855;DHT22;45732;52.850;6.896;2023-12-20T05:39:46;6.90;99.90
59855;DHT22;45732;52.850;6.896;2023-12-20T05:42:12;6.90;99.90
59855;DHT22;45732;52.850;6.896;2023-12-20T05:44:38;6.90;99.90
59855;DHT22;45732;52.850;6.896;2023-12-20T05:47:03;6.90;99.90
59855;DHT22;45732;52.850;6.896;2023-12-20T05:49:29;6.90;99.90
59855;DHT22;45732;52.850;6.896;2023-12-20T05:51:55;6.90;99.90
59855;DHT22;45732;52.850;6.896;2023-12-20T05:54:20;6.90;99.90
59855;DHT22;45732;52.850;6.896;2023-12-20T05:56:47;7.00;99.90
59855;DHT22;45732;52.850;6.896;2023-12-20T05:59:12;7.00;99.90
59855;DHT22;45732;52.850;6.896;2023-12-20T06:01:39;7.00;99.90
59855;DHT22;45732;52.850;6.896;2023-12-20T06:04:04;7.00;99.90
59855;DHT22;45732;52.850;6.896;2023-12-20T06:06:30;7.00;99.90
59855;DHT22;45732;52.850;6.896;2023-12-20T06:08:56;7.00;99.90
59855;DHT22;45732;52.850;6.896;2023-12-20T06:11:22;7.00;99.90
59855;DHT22;45732;52.850;6.896;2023-12-20T06:13:47;7.10;99.90
59855;DHT22;45732;52.850;6.896;2023-12-20T06:16:14;7.00;99.90
59855;DHT22;45732;52.850;6.896;2023-12-20T06:18:40;7.10;99.90
59855;DHT22;45732;52.850;6.896;2023-12-20T06:21:07;7.10;99.90
59855;DHT22;45732;52.850;6.896;2023-12-20T06:23:33;7.10;99.90
59855;DHT22;45732;52.850;6.896;2023-12-20T06:25:59;7.10;99.90
59855;DHT22;45732;52.850;6.896;2023-12-20T06:28:24;7.10;99.90
59855;DHT22;45732;52.850;6.896;2023-12-20T06:30:50;7.10;99.90
59855;DHT22;45732;52.850;6.896;2023-12-20T06:33:17;7.10;99.90
59855;DHT22;45732;52.850;6.896;2023-12-20T06:35:44;7.10;99.90
59855;DHT22;45732;52.850;6.896;2023-12-20T06:38:09;7.10;99.90
59855;DHT22;45732;52.850;6.896;2023-12-20T06:40:35;7.20;99.90
59855;DHT22;45732;52.850;6.896;2023-12-20T06:43:01;7.20;99.90
59855;DHT22;45732;52.850;6.896;2023-12-20T06:45:26;7.20;99.90
59855;DHT22;45732;52.850;6.896;2023-12-20T06:47:52;7.20;99.90
59855;DHT22;45732;52.850;6.896;2023-12-20T06:50:18;7.10;99.90
59855;DHT22;45732;52.850;6.896;2023-12-20T06:52:43;7.20;99.90
59855;DHT22;45732;52.850;6.896;2023-12-20T06:55:09;7.20;99.90
59855;DHT22;45732;52.850;6.896;2023-12-20T06:57:35;7.20;99.90
59855;DHT22;45732;52.850;6.896;2023-12-20T07:00:02;7.20;99.90
59855;DHT22;45732;52.850;6.896;2023-12-20T07:02:28;7.20;99.90
59855;DHT22;45732;52.850;6.896;2023-12-20T07:04:56;7.20;99.90
59855;DHT22;45732;52.850;6.896;2023-12-20T07:07:21;7.20;99.90
59855;DHT22;45732;52.850;6.896;2023-12-20T07:09:48;7.20;99.90
59855;DHT22;45732;52.850;6.896;2023-12-20T07:12:14;7.20;99.90
59855;DHT22;45732;52.850;6.896;2023-12-20T07:14:40;7.20;99.90
59855;DHT22;45732;52.850;6.896;2023-12-20T07:17:06;7.30;99.90
59855;DHT22;45732;52.850;6.896;2023-12-20T07:19:37;7.20;99.90
59855;DHT22;45732;52.850;6.896;2023-12-20T07:22:04;7.20;99.90
59855;DHT22;45732;52.850;6.896;2023-12-20T07:24:30;7.20;99.90
59855;DHT22;45732;52.850;6.896;2023-12-20T07:26:55;7.30;99.90
59855;DHT22;45732;52.850;6.896;2023-12-20T07:29:21;7.30;99.90
59855;DHT22;45732;52.850;6.896;2023-12-20T07:31:47;7.20;99.90
59855;DHT22;45732;52.850;6.896;2023-12-20T07:34:12;7.30;99.90
59855;DHT22;45732;52.850;6.896;2023-12-20T07:36:38;7.30;99.90
59855;DHT22;45732;52.850;6.896;2023-12-20T07:39:03;7.30;99.90
59855;DHT22;45732;52.850;6.896;2023-12-20T07:41:29;7.30;99.90
59855;DHT22;45732;52.850;6.896;2023-12-20T07:43:55;7.30;99.90
59855;DHT22;45732;52.850;6.896;2023-12-20T07:46:22;7.30;99.90
59855;DHT22;45732;52.850;6.896;2023-12-20T07:48:50;7.30;99.90
59855;DHT22;45732;52.850;6.896;2023-12-20T07:51:16;7.40;99.90
59855;DHT22;45732;52.850;6.896;2023-12-20T07:53:42;7.40;99.90
59855;DHT22;45732;52.850;6.896;2023-12-20T07:56:17;7.30;99.90
59855;DHT22;45732;52.850;6.896;2023-12-20T07:58:44;7.40;99.90
59855;DHT22;45732;52.850;6.896;2023-12-20T08:01:11;7.40;99.90
59855;DHT22;45732;52.850;6.896;2023-12-20T08:03:37;7.40;99.90
59855;DHT22;45732;52.850;6.896;2023-12-20T08:06:03;7.30;99.90
59855;DHT22;45732;52.850;6.896;2023-12-20T08:08:29;7.30;99.90
59855;DHT22;45732;52.850;6.896;2023-12-20T08:10:54;7.30;99.90
59855;DHT22;45732;52.850;6.896;2023-12-20T08:13:20;7.30;99.90
59855;DHT22;45732;52.850;6.896;2023-12-20T08:15:50;7.40;99.90
59855;DHT22;45732;52.850;6.896;2023-12-20T08:18:16;7.40;99.90
59855;DHT22;45732;52.850;6.896;2023-12-20T08:20:41;7.40;99.90
59855;DHT22;45732;52.850;6.896;2023-12-20T08:23:07;7.50;99.90
59855;DHT22;45732;52.850;6.896;2023-12-20T08:25:33;7.50;99.90
59855;DHT22;45732;52.850;6.896;2023-12-20T08:27:58;7.50;99.90
59855;DHT22;45732;52.850;6.896;2023-12-20T08:30:24;7.50;99.90
59855;DHT22;45732;52.850;6.896;2023-12-20T08:32:50;7.60;99.90
59855;DHT22;45732;52.850;6.896;2023-12-20T08:35:16;7.60;99.90
59855;DHT22;45732;52.850;6.896;2023-12-20T08:37:43;7.60;99.90
59855;DHT22;45732;52.850;6.896;2023-12-20T08:40:09;7.60;99.90
59855;DHT22;45732;52.850;6.896;2023-12-20T08:42:35;7.70;99.90
59855;DHT22;45732;52.850;6.896;2023-12-20T08:45:01;7.70;99.90
59855;DHT22;45732;52.850;6.896;2023-12-20T08:47:27;7.80;99.90
59855;DHT22;45732;52.850;6.896;2023-12-20T08:49:52;7.80;99.90
59855;DHT22;45732;52.850;6.896;2023-12-20T08:52:25;7.80;99.90
59855;DHT22;45732;52.850;6.896;2023-12-20T08:54:53;7.80;99.90
59855;DHT22;45732;52.850;6.896;2023-12-20T08:57:22;7.90;99.90
59855;DHT22;45732;52.850;6.896;2023-12-20T08:59:49;7.90;99.90
59855;DHT22;45732;52.850;6.896;2023-12-20T09:02:16;7.90;99.90
59855;DHT22;45732;52.850;6.896;2023-12-20T09:04:42;7.90;99.90
59855;DHT22;45732;52.850;6.896;2023-12-20T09:07:25;7.90;99.90
59855;DHT22;45732;52.850;6.896;2023-12-20T09:09:52;7.90;99.90
59855;DHT22;45732;52.850;6.896;2023-12-20T09:12:19;7.90;99.90
59855;DHT22;45732;52.850;6.896;2023-12-20T09:14:49;7.90;99.90
59855;DHT22;45732;52.850;6.896;2023-12-20T09:17:16;8.00;99.90
59855;DHT22;45732;52.850;6.896;2023-12-20T09:19:43;8.00;99.90
59855;DHT22;45732;52.850;6.896;2023-12-20T09:22:12;8.00;99.90
59855;DHT22;45732;52.850;6.896;2023-12-20T09:24:38;8.00;99.90
59855;DHT22;45732;52.850;6.896;2023-12-20T09:27:06;8.10;99.90
59855;DHT22;45732;52.850;6.896;2023-12-20T09:29:32;8.10;99.90
59855;DHT22;45732;52.850;6.896;2023-12-20T09:31:58;8.10;99.90
59855;DHT22;45732;52.850;6.896;2023-12-20T09:34:24;8.10;99.90
59855;DHT22;45732;52.850;6.896;2023-12-20T09:36:51;8.20;99.90
59855;DHT22;45732;52.850;6.896;2023-12-20T09:39:18;8.20;99.90
59855;DHT22;45732;52.850;6.896;2023-12-20T09:42:03;8.20;99.90
59855;DHT22;45732;52.850;6.896;2023-12-20T09:44:29;8.20;99.90
59855;DHT22;45732;52.850;6.896;2023-12-20T09:46:56;8.20;99.90
59855;DHT22;45732;52.850;6.896;2023-12-20T09:49:22;8.20;99.90
59855;DHT22;45732;52.850;6.896;2023-12-20T09:51:50;8.30;99.90
59855;DHT22;45732;52.850;6.896;2023-12-20T09:54:21;8.40;99.90
59855;DHT22;45732;52.850;6.896;2023-12-20T09:56:46;8.40;99.90
59855;DHT22;45732;52.850;6.896;2023-12-20T09:59:13;8.40;99.90
59855;DHT22;45732;52.850;6.896;2023-12-20T10:01:40;8.30;99.90
59855;DHT22;45732;52.850;6.896;2023-12-20T10:04:07;7.60;99.90
59855;DHT22;45732;52.850;6.896;2023-12-20T10:06:39;6.80;99.90
59855;DHT22;45732;52.850;6.896;2023-12-20T10:09:05;6.40;99.90
59855;DHT22;45732;52.850;6.896;2023-12-20T10:11:31;6.30;99.90
59855;DHT22;45732;52.850;6.896;2023-12-20T10:14:00;6.20;99.90
59855;DHT22;45732;52.850;6.896;2023-12-20T10:16:29;6.20;99.90
59855;DHT22;45732;52.850;6.896;2023-12-20T10:18:56;6.20;99.90
59855;DHT22;45732;52.850;6.896;2023-12-20T10:21:25;6.20;99.90
59855;DHT22;45732;52.850;6.896;2023-12-20T10:23:57;6.20;99.90
59855;DHT22;45732;52.850;6.896;2023-12-20T10:26:25;6.20;99.90
59855;DHT22;45732;52.850;6.896;2023-12-20T10:28:53;6.30;99.90
59855;DHT22;45732;52.850;6.896;2023-12-20T10:31:29;6.30;99.90
59855;DHT22;45732;52.850;6.896;2023-12-20T10:33:58;6.30;99.90
59855;DHT22;45732;52.850;6.896;2023-12-20T10:36:26;6.30;99.90
59855;DHT22;45732;52.850;6.896;2023-12-20T10:38:53;6.30;99.90
59855;DHT22;45732;52.850;6.896;2023-12-20T10:41:32;6.40;99.90
59855;DHT22;45732;52.850;6.896;2023-12-20T10:43:59;6.30;99.90
59855;DHT22;45732;52.850;6.896;2023-12-20T10:46:27;6.40;99.90
59855;DHT22;45732;52.850;6.896;2023-12-20T10:48:54;6.40;99.90
59855;DHT22;45732;52.850;6.896;2023-12-20T10:51:21;6.40;99.90
59855;DHT22;45732;52.850;6.896;2023-12-20T10:53:48;6.40;99.90
59855;DHT22;45732;52.850;6.896;2023-12-20T10:56:17;6.50;99.90
59855;DHT22;45732;52.850;6.896;2023-12-20T10:58:44;6.50;99.90
59855;DHT22;45732;52.850;6.896;2023-12-20T11:01:15;6.50;99.90
59855;DHT22;45732;52.850;6.896;2023-12-20T11:03:52;6.50;99.90
59855;DHT22;45732;52.850;6.896;2023-12-20T11:14:23;6.60;99.90
59855;DHT22;45732;52.850;6.896;2023-12-20T11:16:50;6.60;99.90
59855;DHT22;45732;52.850;6.896;2023-12-20T11:19:17;6.60;99.90
59855;DHT22;45732;52.850;6.896;2023-12-20T11:21:42;6.70;99.90
59855;DHT22;45732;52.850;6.896;2023-12-20T11:24:09;6.70;99.90
59855;DHT22;45732;52.850;6.896;2023-12-20T11:26:35;6.80;99.90
59855;DHT22;45732;52.850;6.896;2023-12-20T11:31:54;6.80;99.90
59855;DHT22;45732;52.850;6.896;2023-12-20T11:34:20;6.80;99.90
59855;DHT22;45732;52.850;6.896;2023-12-20T11:36:46;6.90;99.90
59855;DHT22;45732;52.850;6.896;2023-12-20T11:39:11;6.90;99.90
59855;DHT22;45732;52.850;6.896;2023-12-20T11:41:44;6.90;99.90
59855;DHT22;45732;52.850;6.896;2023-12-20T11:44:10;6.90;99.90
59855;DHT22;45732;52.850;6.896;2023-12-20T11:46:37;7.00;99.90
59855;DHT22;45732;52.850;6.896;2023-12-20T11:49:02;7.10;99.90
59855;DHT22;45732;52.850;6.896;2023-12-20T11:51:28;7.10;99.90
59855;DHT22;45732;52.850;6.896;2023-12-20T11:53:54;7.10;99.90
59855;DHT22;45732;52.850;6.896;2023-12-20T11:56:19;7.10;99.90
59855;DHT22;45732;52.850;6.896;2023-12-20T11:58:45;7.10;99.90
59855;DHT22;45732;52.850;6.896;2023-12-20T12:01:11;7.10;99.90
59855;DHT22;45732;52.850;6.896;2023-12-20T12:03:37;7.10;99.90
59855;DHT22;45732;52.850;6.896;2023-12-20T12:06:03;7.10;99.90
59855;DHT22;45732;52.850;6.896;2023-12-20T12:08:30;7.20;99.90
59855;DHT22;45732;52.850;6.896;2023-12-20T12:10:56;7.10;99.90
59855;DHT22;45732;52.850;6.896;2023-12-20T12:13:22;7.10;99.90
59855;DHT22;45732;52.850;6.896;2023-12-20T12:15:48;7.10;99.90
59855;DHT22;45732;52.850;6.896;2023-12-20T12:18:16;7.10;99.90
59855;DHT22;45732;52.850;6.896;2023-12-20T12:20:42;7.10;99.90
59855;DHT22;45732;52.850;6.896;2023-12-20T12:23:07;7.20;99.90
59855;DHT22;45732;52.850;6.896;2023-12-20T12:25:37;7.20;99.90
59855;DHT22;45732;52.850;6.896;2023-12-20T12:28:03;7.20;99.90
59855;DHT22;45732;52.850;6.896;2023-12-20T12:30:29;7.20;99.90
59855;DHT22;45732;52.850;6.896;2023-12-20T12:32:57;7.30;99.90
59855;DHT22;45732;52.850;6.896;2023-12-20T12:35:26;7.20;99.90
59855;DHT22;45732;52.850;6.896;2023-12-20T12:37:52;7.30;99.90
59855;DHT22;45732;52.850;6.896;2023-12-20T12:40:17;7.20;99.90
59855;DHT22;45732;52.850;6.896;2023-12-20T12:42:44;7.30;99.90
59855;DHT22;45732;52.850;6.896;2023-12-20T12:45:11;7.30;99.90
59855;DHT22;45732;52.850;6.896;2023-12-20T12:47:37;7.20;99.90
59855;DHT22;45732;52.850;6.896;2023-12-20T12:50:03;7.20;99.90
59855;DHT22;45732;52.850;6.896;2023-12-20T12:52:30;7.20;99.90
59855;DHT22;45732;52.850;6.896;2023-12-20T12:54:56;7.20;99.90
59855;DHT22;45732;52.850;6.896;2023-12-20T12:57:22;7.20;99.90
59855;DHT22;45732;52.850;6.896;2023-12-20T12:59:47;7.20;99.90
59855;DHT22;45732;52.850;6.896;2023-12-20T13:02:14;7.20;99.90
59855;DHT22;45732;52.850;6.896;2023-12-20T13:04:40;7.20;99.90
59855;DHT22;45732;52.850;6.896;2023-12-20T13:07:07;7.20;99.90
59855;DHT22;45732;52.850;6.896;2023-12-20T13:09:33;7.20;99.90
59855;DHT22;45732;52.850;6.896;2023-12-20T13:11:59;7.20;99.90
59855;DHT22;45732;52.850;6.896;2023-12-20T13:14:25;7.20;99.90
59855;DHT22;45732;52.850;6.896;2023-12-20T13:16:50;7.20;99.90
59855;DHT22;45732;52.850;6.896;2023-12-20T13:19:16;7.20;99.90
59855;DHT22;45732;52.850;6.896;2023-12-20T13:21:42;7.20;99.90
59855;DHT22;45732;52.850;6.896;2023-12-20T13:24:07;7.20;99.90
59855;DHT22;45732;52.850;6.896;2023-12-20T13:26:33;7.20;99.90
59855;DHT22;45732;52.850;6.896;2023-12-20T13:28:59;7.20;99.90
59855;DHT22;45732;52.850;6.896;2023-12-20T13:31:25;7.10;99.90
59855;DHT22;45732;52.850;6.896;2023-12-20T13:33:50;7.10;99.90
59855;DHT22;45732;52.850;6.896;2023-12-20T13:36:18;7.00;99.90
59855;DHT22;45732;52.850;6.896;2023-12-20T13:38:44;6.90;99.90
59855;DHT22;45732;52.850;6.896;2023-12-20T13:41:09;6.90;99.90
59855;DHT22;45732;52.850;6.896;2023-12-20T13:43:35;6.80;99.90
59855;DHT22;45732;52.850;6.896;2023-12-20T13:46:01;6.80;99.90
59855;DHT22;45732;52.850;6.896;2023-12-20T13:48:27;6.70;99.90
59855;DHT22;45732;52.850;6.896;2023-12-20T13:50:52;6.70;99.90
59855;DHT22;45732;52.850;6.896;2023-12-20T13:53:18;6.70;99.90
59855;DHT22;45732;52.850;6.896;2023-12-20T13:55:44;6.70;99.90
59855;DHT22;45732;52.850;6.896;2023-12-20T13:58:10;6.60;99.90
59855;DHT22;45732;52.850;6.896;2023-12-20T14:00:36;6.60;99.90
59855;DHT22;45732;52.850;6.896;2023-12-20T14:03:06;6.50;99.90
59855;DHT22;45732;52.850;6.896;2023-12-20T14:05:32;6.50;99.90
59855;DHT22;45732;52.850;6.896;2023-12-20T14:07:59;6.40;99.90
59855;DHT22;45732;52.850;6.896;2023-12-20T14:10:26;6.40;99.90
59855;DHT22;45732;52.850;6.896;2023-12-20T14:12:53;6.40;99.90
59855;DHT22;45732;52.850;6.896;2023-12-20T14:15:19;6.40;99.90
59855;DHT22;45732;52.850;6.896;2023-12-20T14:17:44;6.40;99.90
59855;DHT22;45732;52.850;6.896;2023-12-20T14:20:11;6.40;99.90
59855;DHT22;45732;52.850;6.896;2023-12-20T14:22:38;6.40;99.90
59855;DHT22;45732;52.850;6.896;2023-12-20T14:25:04;6.50;99.90
59855;DHT22;45732;52.850;6.896;2023-12-20T14:27:32;6.50;99.90
59855;DHT22;45732;52.850;6.896;2023-12-20T14:29:57;6.50;99.90
59855;DHT22;45732;52.850;6.896;2023-12-20T14:32:24;6.50;99.90
59855;DHT22;45732;52.850;6.896;2023-12-20T14:34:50;6.50;99.90
59855;DHT22;45732;52.850;6.896;2023-12-20T14:37:15;6.50;99.90
59855;DHT22;45732;52.850;6.896;2023-12-20T14:39:43;6.50;99.90
59855;DHT22;45732;52.850;6.896;2023-12-20T14:42:08;6.50;99.90
59855;DHT22;45732;52.850;6.896;2023-12-20T14:44:42;6.50;99.90
59855;DHT22;45732;52.850;6.896;2023-12-20T14:47:09;6.50;99.90
59855;DHT22;45732;52.850;6.896;2023-12-20T14:49:35;6.50;99.90
59855;DHT22;45732;52.850;6.896;2023-12-20T14:52:01;6.50;99.90
59855;DHT22;45732;52.850;6.896;2023-12-20T14:54:27;6.50;99.90
59855;DHT22;45732;52.850;6.896;2023-12-20T14:56:53;6.50;99.90
59855;DHT22;45732;52.850;6.896;2023-12-20T14:59:21;6.50;99.90
59855;DHT22;45732;52.850;6.896;2023-12-20T15:01:48;6.50;99.90
59855;DHT22;45732;52.850;6.896;2023-12-20T15:04:13;6.50;99.90
59855;DHT22;45732;52.850;6.896;2023-12-20T15:06:39;6.50;99.90
59855;DHT22;45732;52.850;6.896;2023-12-20T15:09:05;6.50;99.90
59855;DHT22;45732;52.850;6.896;2023-12-20T15:11:31;6.50;99.90
59855;DHT22;45732;52.850;6.896;2023-12-20T15:13:57;6.50;99.90
59855;DHT22;45732;52.850;6.896;2023-12-20T15:16:23;6.50;99.90
59855;DHT22;45732;52.850;6.896;2023-12-20T15:18:50;6.40;99.90
59855;DHT22;45732;52.850;6.896;2023-12-20T15:21:16;6.40;99.90
59855;DHT22;45732;52.850;6.896;2023-12-20T15:23:42;6.40;99.90
59855;DHT22;45732;52.850;6.896;2023-12-20T15:26:18;6.40;99.90
59855;DHT22;45732;52.850;6.896;2023-12-20T15:28:44;6.50;99.90
59855;DHT22;45732;52.850;6.896;2023-12-20T15:31:10;6.50;99.90
59855;DHT22;45732;52.850;6.896;2023-12-20T15:33:36;6.50;99.90
59855;DHT22;45732;52.850;6.896;2023-12-20T15:36:02;6.50;99.90
59855;DHT22;45732;52.850;6.896;2023-12-20T15:38:28;6.50;99.90
59855;DHT22;45732;52.850;6.896;2023-12-20T15:40:53;6.50;99.90
59855;DHT22;45732;52.850;6.896;2023-12-20T15:43:19;6.50;99.90
59855;DHT22;45732;52.850;6.896;2023-12-20T15:45:45;6.60;99.90
59855;DHT22;45732;52.850;6.896;2023-12-20T15:48:11;6.50;99.90
59855;DHT22;45732;52.850;6.896;2023-12-20T15:50:43;6.60;99.90